Terminal Aerodrome Forecast
Issued by NWS Chicago, IL

Home | Current Version | Previous Version | Graphics & Text | Print | Product List | Glossary On
Versions: 1 2 3 4 5 6 7 8 9 10 11 12 13 14 15 16 17 18 19 20 21 22 23 24 25 26 27 28 29 30 31 32 33
000
FTUS43 KLOT 210900 AAB
TAFRFD
TAF AMD
KRFD 210907Z 2109/2206 16006KT 6SM -FZDZ BR SCT018 OVC025
     FM211100 17006KT 5SM -FZDZ BR OVC008
      TEMPO 2111/2113 2SM -DZ BR OVC005
     FM211600 16012KT 6SM BR OVC009
     FM220000 17012KT P6SM OVC015=

USA.gov is the U.S. government's official web portal to all federal, state and local government web resources and services.